Terminal Aerodrome Forecast
Issued by NWS

Home | Current Version | Previous Version | Text Only | Print | Product List | Glossary On
Versions: 1 2 3 4 5 6 7 8 9 10 11 12 13 14 15 16 17 18 19 20 21 22
000
FTUS46 KSEW 270500
TAFSEA
TAF
KSEA 270532Z 2706/2812 00000KT P6SM BKN014 OVC040
      TEMPO 2707/2711 OVC013
     FM271100 19007KT P6SM -RA OVC013
      TEMPO 2712/2716 4SM -RA BR OVC007
     FM271800 20014G22KT P6SM -SHRA SCT012 BKN020 OVC035
     FM280400 21010KT P6SM VCSH SCT017 BKN030 OVC050
     FM281000 22009KT P6SM OVC020=

USA.gov is the U.S. government's official web portal to all federal, state and local government web resources and services.